Time;durP1;ratioP1;P1;durP2;ratioP2;P2;SDS_P1;SDS_P2;PMS_P1;PMS_P2;Temp;Humidity;BMP_temperature;BMP_pressure;BME280_temperature;BME280_humidity;BME280_pressure;Samples;Min_cycle;Max_cycle;Signal;HPM_P1;HPM_P2
2023/04/19 00:02:27;;;;;;;10.27;5.85;;;9.20;99.90;;;;;;5090363;28;20224;-68
2023/04/19 00:04:55;;;;;;;5.97;5.38;;;9.20;99.90;;;;;;5061581;28;20595;-68
2023/04/19 00:07:21;;;;;;;8.88;6.25;;;9.20;99.90;;;;;;5070023;28;20208;-68
2023/04/19 00:09:48;;;;;;;7.25;5.50;;;9.20;99.90;;;;;;5069990;28;20204;-68
2023/04/19 00:12:15;;;;;;;7.20;6.03;;;9.10;99.90;;;;;;5069999;28;20228;-68
2023/04/19 00:14:41;;;;;;;7.32;5.70;;;9.20;99.90;;;;;;5069957;28;20193;-68
2023/04/19 00:17:10;;;;;;;7.30;5.82;;;9.20;99.90;;;;;;5070152;28;20197;-67
2023/04/19 00:19:38;;;;;;;8.00;6.07;;;9.20;99.90;;;;;;5070114;28;20239;-68
2023/04/19 00:22:05;;;;;;;7.53;5.00;;;9.20;99.90;;;;;;5069769;28;20223;-68
2023/04/19 00:24:31;;;;;;;13.10;6.55;;;9.20;99.90;;;;;;5069820;28;20587;-67
2023/04/19 00:26:59;;;;;;;7.53;5.15;;;9.20;99.90;;;;;;5070297;28;20200;-67
2023/04/19 00:29:25;;;;;;;9.10;6.57;;;9.10;99.90;;;;;;5070233;28;20197;-68
2023/04/19 00:31:52;;;;;;;5.60;5.03;;;9.10;99.90;;;;;;5069402;28;20224;-68
2023/04/19 00:34:19;;;;;;;6.25;5.18;;;9.10;99.90;;;;;;5070178;28;20192;-68
2023/04/19 00:36:47;;;;;;;7.90;6.22;;;9.10;99.90;;;;;;5069659;28;20588;-68
2023/04/19 00:39:14;;;;;;;6.80;5.53;;;9.10;99.90;;;;;;5070011;28;20197;-68
2023/04/19 00:41:41;;;;;;;7.55;5.90;;;9.10;99.90;;;;;;5069224;28;20270;-68
2023/04/19 00:44:07;;;;;;;9.45;6.70;;;9.10;99.90;;;;;;5069753;28;20216;-68
2023/04/19 00:46:37;;;;;;;8.60;5.75;;;9.00;99.90;;;;;;5069840;28;20571;-68
2023/04/19 00:49:04;;;;;;;8.80;5.63;;;9.10;99.90;;;;;;5070032;28;20230;-68
2023/04/19 00:51:31;;;;;;;6.97;5.60;;;9.10;99.90;;;;;;5068957;28;20311;-68
2023/04/19 00:53:59;;;;;;;7.68;6.30;;;9.00;99.90;;;;;;5069822;28;20200;-68
2023/04/19 00:56:27;;;;;;;8.93;5.20;;;9.10;99.90;;;;;;5069005;28;20625;-68
2023/04/19 00:58:54;;;;;;;6.32;5.35;;;9.00;99.90;;;;;;5069417;28;20680;-68
2023/04/19 01:01:21;;;;;;;6.05;4.85;;;9.00;99.90;;;;;;5069084;28;20687;-67
2023/04/19 01:03:48;;;;;;;7.72;5.57;;;9.00;99.90;;;;;;5069585;28;20223;-68
2023/04/19 01:06:15;;;;;;;11.30;5.80;;;9.00;99.90;;;;;;5069602;28;20204;-67
2023/04/19 01:08:42;;;;;;;7.70;5.72;;;9.00;99.90;;;;;;5069496;28;20568;-68
2023/04/19 01:11:10;;;;;;;9.73;6.65;;;9.10;99.90;;;;;;5069483;28;20559;-67
2023/04/19 01:13:36;;;;;;;7.07;5.13;;;9.00;99.90;;;;;;5069520;28;20223;-68
2023/04/19 01:16:03;;;;;;;8.70;6.43;;;9.00;99.90;;;;;;5071752;28;20607;-67
2023/04/19 01:18:36;;;;;;;7.25;6.43;;;9.00;99.90;;;;;;5073530;28;20675;-68
2023/04/19 01:21:02;;;;;;;7.95;5.63;;;9.00;99.90;;;;;;5067322;28;20291;-68
2023/04/19 01:23:31;;;;;;;9.77;5.80;;;9.00;99.90;;;;;;5074903;28;20211;-68
2023/04/19 01:25:57;;;;;;;6.68;4.88;;;9.00;99.90;;;;;;5065590;28;20702;-68
2023/04/19 01:28:24;;;;;;;8.38;6.43;;;8.90;99.90;;;;;;5073029;28;20200;-68
2023/04/19 01:30:52;;;;;;;9.80;5.97;;;9.00;99.90;;;;;;5072842;28;20741;-68
2023/04/19 01:33:19;;;;;;;6.57;5.72;;;8.90;99.90;;;;;;5073322;28;20250;-68
2023/04/19 01:35:47;;;;;;;8.90;5.85;;;8.90;99.90;;;;;;5073358;28;20276;-68
2023/04/19 01:38:14;;;;;;;7.18;5.90;;;8.90;99.90;;;;;;5073241;28;20553;-68
2023/04/19 01:40:42;;;;;;;9.15;6.35;;;8.90;99.90;;;;;;5072682;28;20295;-68
2023/04/19 01:43:10;;;;;;;6.95;5.10;;;8.90;99.90;;;;;;5073467;28;20663;-68
2023/04/19 01:45:37;;;;;;;6.10;5.50;;;8.90;99.90;;;;;;5072872;28;20220;-67
2023/04/19 01:48:04;;;;;;;8.85;6.88;;;8.90;99.90;;;;;;5073208;28;20247;-68
2023/04/19 01:50:31;;;;;;;7.55;5.55;;;8.90;99.90;;;;;;5072553;28;20201;-68
2023/04/19 01:52:58;;;;;;;10.45;6.72;;;8.90;99.90;;;;;;5072723;28;20686;-67
2023/04/19 01:55:25;;;;;;;8.55;6.00;;;8.90;99.90;;;;;;5072866;28;20591;-68
2023/04/19 01:57:53;;;;;;;6.63;5.88;;;8.80;99.90;;;;;;5072642;28;20740;-68
2023/04/19 02:00:20;;;;;;;9.55;5.90;;;8.80;99.90;;;;;;5072365;28;20201;-68
2023/04/19 02:02:47;;;;;;;9.27;6.35;;;8.80;99.90;;;;;;5072346;28;20706;-68
2023/04/19 02:05:14;;;;;;;8.95;6.90;;;8.80;99.90;;;;;;5072377;28;20606;-68
2023/04/19 02:07:41;;;;;;;10.27;6.43;;;8.80;99.90;;;;;;5072398;28;20204;-68
2023/04/19 02:10:10;;;;;;;10.52;6.45;;;8.80;99.90;;;;;;5072462;28;20789;-68
2023/04/19 02:12:37;;;;;;;9.05;6.70;;;8.80;99.90;;;;;;5072163;28;20710;-68
2023/04/19 02:15:06;;;;;;;8.82;6.72;;;8.80;99.90;;;;;;5072763;28;20562;-68
2023/04/19 02:17:32;;;;;;;10.10;6.90;;;8.80;99.90;;;;;;5088903;28;20737;-68
2023/04/19 02:19:59;;;;;;;7.60;5.80;;;8.80;99.90;;;;;;5080722;28;20203;-69
2023/04/19 02:22:26;;;;;;;10.82;7.45;;;8.80;99.90;;;;;;5071879;28;20224;-68
2023/04/19 02:24:52;;;;;;;8.45;6.25;;;8.70;99.90;;;;;;5091713;28;20227;-68
2023/04/19 02:27:19;;;;;;;8.77;6.40;;;8.80;99.90;;;;;;5091334;28;20210;-68
2023/04/19 02:29:46;;;;;;;9.20;6.80;;;8.70;99.90;;;;;;5092650;28;20199;-68
2023/04/19 02:32:14;;;;;;;12.30;7.60;;;8.70;99.90;;;;;;5092000;28;20219;-68
2023/04/19 02:34:41;;;;;;;10.07;7.40;;;8.70;99.90;;;;;;5075656;28;20748;-68
2023/04/19 02:37:08;;;;;;;9.00;7.03;;;8.70;99.90;;;;;;5079851;28;20200;-67
2023/04/19 02:39:34;;;;;;;12.20;7.40;;;8.70;99.90;;;;;;5072277;28;20201;-68
2023/04/19 02:42:01;;;;;;;9.77;7.00;;;8.70;99.90;;;;;;5072031;28;20217;-68
2023/04/19 02:44:28;;;;;;;7.95;6.20;;;8.60;99.90;;;;;;5079268;28;20220;-68
2023/04/19 02:46:56;;;;;;;9.60;7.13;;;8.70;99.90;;;;;;5092090;28;20206;-68
2023/04/19 02:49:24;;;;;;;8.52;6.10;;;8.70;99.90;;;;;;5091921;28;20203;-68
2023/04/19 02:51:52;;;;;;;11.07;6.70;;;8.70;99.90;;;;;;5091718;28;20220;-67
2023/04/19 02:54:18;;;;;;;9.20;6.70;;;8.70;99.90;;;;;;5092344;28;20607;-68
2023/04/19 02:56:45;;;;;;;12.43;7.75;;;8.70;99.90;;;;;;5092267;28;20207;-68
2023/04/19 02:59:12;;;;;;;8.63;7.00;;;8.70;99.90;;;;;;5092402;28;20200;-68
2023/04/19 03:01:38;;;;;;;10.07;7.07;;;8.70;99.90;;;;;;5091622;28;20231;-68
2023/04/19 03:04:05;;;;;;;7.80;7.00;;;8.60;99.90;;;;;;5092398;28;20202;-68
2023/04/19 03:06:33;;;;;;;10.50;6.40;;;8.60;99.90;;;;;;5092107;28;20230;-68
2023/04/19 03:09:00;;;;;;;9.73;6.60;;;8.70;99.90;;;;;;5091935;28;20202;-68
2023/04/19 03:11:27;;;;;;;12.23;8.18;;;8.70;99.90;;;;;;5091505;28;20219;-68
2023/04/19 03:13:53;;;;;;;8.73;6.93;;;8.70;99.90;;;;;;5092113;28;20290;-68
2023/04/19 03:16:20;;;;;;;8.38;6.78;;;8.70;99.90;;;;;;5091752;28;20659;-68
2023/04/19 03:18:47;;;;;;;9.60;7.78;;;8.70;99.90;;;;;;5091684;28;20204;-68
2023/04/19 03:21:14;;;;;;;11.43;7.63;;;8.70;99.90;;;;;;5091456;28;20223;-69
2023/04/19 03:23:42;;;;;;;8.93;6.07;;;8.70;99.90;;;;;;5091654;28;20701;-68
2023/04/19 03:26:09;;;;;;;11.68;6.75;;;8.70;99.90;;;;;;5091616;28;20219;-68
2023/04/19 03:28:35;;;;;;;10.32;6.57;;;8.70;99.90;;;;;;5091480;28;20582;-68
2023/04/19 03:31:02;;;;;;;11.32;8.05;;;8.60;99.90;;;;;;5091395;28;20219;-68
2023/04/19 03:33:29;;;;;;;10.50;6.82;;;8.70;99.90;;;;;;5091499;28;20231;-68
2023/04/19 03:35:55;;;;;;;12.15;8.52;;;8.70;99.90;;;;;;5091483;28;20671;-68
2023/04/19 03:38:22;;;;;;;10.50;7.65;;;8.60;99.90;;;;;;5076783;28;20576;-68
2023/04/19 03:40:50;;;;;;;10.77;7.60;;;8.60;99.90;;;;;;5070658;28;20224;-68
2023/04/19 03:43:17;;;;;;;11.95;7.68;;;8.60;99.90;;;;;;5071158;28;20207;-68
2023/04/19 03:45:44;;;;;;;7.30;6.50;;;8.60;99.90;;;;;;5070941;28;20216;-69
2023/04/19 03:48:10;;;;;;;12.38;7.05;;;8.70;99.90;;;;;;5070995;28;20197;-69
2023/04/19 03:50:37;;;;;;;10.68;8.05;;;8.60;99.90;;;;;;5070497;28;20603;-69
2023/04/19 03:53:04;;;;;;;9.80;7.20;;;8.60;99.90;;;;;;5070968;28;20204;-68
2023/04/19 03:55:31;;;;;;;11.73;7.65;;;8.60;99.90;;;;;;5079470;28;20284;-68
2023/04/19 03:57:59;;;;;;;11.02;7.85;;;8.60;99.90;;;;;;5082025;28;20200;-69
2023/04/19 04:00:26;;;;;;;9.98;7.43;;;8.60;99.90;;;;;;5090968;28;20202;-69
2023/04/19 04:02:53;;;;;;;9.38;7.85;;;8.60;99.90;;;;;;5072483;28;20201;-69
2023/04/19 04:05:20;;;;;;;10.70;7.45;;;8.60;99.90;;;;;;5070519;28;20223;-68
2023/04/19 04:07:46;;;;;;;13.52;7.10;;;8.50;99.90;;;;;;5070372;28;20292;-68
2023/04/19 04:10:13;;;;;;;11.05;7.07;;;8.60;99.90;;;;;;5070540;28;20679;-68
2023/04/19 04:12:40;;;;;;;8.63;6.60;;;8.50;99.90;;;;;;5079025;28;20227;-68
2023/04/19 04:15:09;;;;;;;9.98;7.90;;;8.50;99.90;;;;;;5091510;28;20187;-68
2023/04/19 04:17:36;;;;;;;10.38;7.75;;;8.50;99.90;;;;;;5091206;28;20208;-68
2023/04/19 04:20:04;;;;;;;12.27;7.10;;;8.50;99.90;;;;;;5084445;28;20200;-71
2023/04/19 04:22:31;;;;;;;8.63;7.13;;;8.50;99.90;;;;;;5065141;28;20230;-70
2023/04/19 04:25:00;;;;;;;13.32;9.73;;;8.50;99.90;;;;;;5069288;28;20457;-68
2023/04/19 04:27:26;;;;;;;12.00;8.07;;;8.40;99.90;;;;;;5085108;28;20204;-68
2023/04/19 04:29:53;;;;;;;12.48;7.78;;;8.50;99.90;;;;;;5090596;28;20222;-68
2023/04/19 04:32:22;;;;;;;11.20;7.65;;;8.40;99.90;;;;;;5090094;28;20219;-68
2023/04/19 04:34:48;;;;;;;9.90;7.28;;;8.40;99.90;;;;;;5090973;28;20242;-68
2023/04/19 04:37:16;;;;;;;13.93;8.60;;;8.40;99.90;;;;;;5090496;28;20195;-68
2023/04/19 04:39:43;;;;;;;8.90;6.47;;;8.40;99.90;;;;;;5090542;28;20208;-69
2023/04/19 04:42:11;;;;;;;11.10;8.88;;;8.40;99.90;;;;;;5086247;28;20212;-69
2023/04/19 04:44:38;;;;;;;9.50;7.10;;;8.50;99.90;;;;;;5085929;28;20212;-69
2023/04/19 04:47:05;;;;;;;10.50;8.38;;;8.50;99.90;;;;;;5090182;28;20235;-69
2023/04/19 04:49:33;;;;;;;11.82;8.85;;;8.50;99.90;;;;;;5089941;28;20204;-70
2023/04/19 04:52:00;;;;;;;11.43;7.85;;;8.50;99.90;;;;;;5078558;28;20307;-70
2023/04/19 04:54:27;;;;;;;10.00;7.07;;;8.50;99.90;;;;;;5075950;28;20666;-70
2023/04/19 04:56:53;;;;;;;8.73;7.43;;;8.50;99.90;;;;;;5072395;28;20588;-70
2023/04/19 04:59:20;;;;;;;9.70;7.20;;;8.50;99.90;;;;;;5075206;28;20203;-70
2023/04/19 05:01:47;;;;;;;12.88;7.28;;;8.50;99.90;;;;;;5089632;28;20224;-72
2023/04/19 05:04:13;;;;;;;12.65;7.55;;;8.50;99.90;;;;;;5090133;28;20195;-70
2023/04/19 05:06:43;;;;;;;10.82;7.38;;;8.60;99.90;;;;;;5090109;28;20226;-69
2023/04/19 05:09:10;;;;;;;12.15;7.55;;;8.60;99.90;;;;;;5090356;28;20627;-70
2023/04/19 05:11:37;;;;;;;9.60;7.95;;;8.60;99.90;;;;;;5089514;28;20224;-69
2023/04/19 05:14:04;;;;;;;9.65;7.63;;;8.60;99.90;;;;;;5089953;28;20215;-70
2023/04/19 05:16:30;;;;;;;11.20;7.47;;;8.70;99.90;;;;;;5089861;28;20192;-68
2023/04/19 05:18:57;;;;;;;10.60;7.68;;;8.60;99.90;;;;;;5089621;28;20210;-68
2023/04/19 05:21:24;;;;;;;10.65;7.05;;;8.60;99.90;;;;;;5089436;28;20273;-69
2023/04/19 05:23:53;;;;;;;12.88;7.43;;;8.60;99.90;;;;;;5089764;28;20231;-68
2023/04/19 05:26:20;;;;;;;9.00;6.85;;;8.60;99.90;;;;;;5089819;28;20258;-68
2023/04/19 05:28:47;;;;;;;10.20;7.63;;;8.60;99.90;;;;;;5072661;28;20287;-69
2023/04/19 05:31:13;;;;;;;10.55;7.72;;;8.60;99.90;;;;;;5069203;28;20279;-68
2023/04/19 05:33:40;;;;;;;10.23;7.47;;;8.60;99.90;;;;;;5069544;28;20330;-70
2023/04/19 05:36:07;;;;;;;10.75;7.65;;;8.60;99.90;;;;;;5069597;28;20193;-70
2023/04/19 05:38:34;;;;;;;10.77;8.40;;;8.60;99.90;;;;;;5069218;28;20212;-68
2023/04/19 05:41:02;;;;;;;12.85;8.05;;;8.60;99.90;;;;;;5079612;28;20227;-69
2023/04/19 05:43:29;;;;;;;13.38;8.00;;;8.60;99.90;;;;;;5089464;28;20200;-68
2023/04/19 05:45:56;;;;;;;12.13;7.90;;;8.60;99.90;;;;;;5089442;28;20245;-68
2023/04/19 05:48:24;;;;;;;13.80;8.25;;;8.60;99.90;;;;;;5089365;28;20199;-68
2023/04/19 05:50:51;;;;;;;11.80;8.60;;;8.60;99.90;;;;;;5088924;28;20220;-70
2023/04/19 05:53:18;;;;;;;12.68;7.68;;;8.60;99.90;;;;;;5240223;22;20235;-67
2023/04/19 05:55:46;;;;;;;14.65;7.95;;;8.60;99.90;;;;;;5091295;28;20748;-68
2023/04/19 05:58:15;;;;;;;10.65;8.38;;;8.60;99.90;;;;;;5090631;28;20222;-68
2023/04/19 06:00:42;;;;;;;11.60;7.35;;;8.60;99.90;;;;;;5090307;28;20569;-68
2023/04/19 06:03:09;;;;;;;13.85;7.90;;;8.60;99.90;;;;;;5084197;28;20192;-67
2023/04/19 06:05:36;;;;;;;14.02;8.52;;;8.60;99.90;;;;;;5089302;28;20248;-68
2023/04/19 06:08:03;;;;;;;12.40;8.60;;;8.60;99.90;;;;;;5091487;28;20211;-68
2023/04/19 06:10:30;;;;;;;12.05;7.82;;;8.60;99.90;;;;;;5085897;28;20230;-68
2023/04/19 06:12:57;;;;;;;10.23;8.13;;;8.60;99.90;;;;;;5087510;28;20227;-67
2023/04/19 06:15:25;;;;;;;10.15;7.88;;;8.60;99.90;;;;;;5084304;28;20199;-68
2023/04/19 06:17:52;;;;;;;11.10;7.70;;;8.60;99.90;;;;;;5083571;28;20195;-68
2023/04/19 06:20:19;;;;;;;12.77;8.10;;;8.60;99.90;;;;;;5085402;28;20208;-68
2023/04/19 06:22:46;;;;;;;12.73;6.63;;;8.60;99.90;;;;;;5085326;28;20219;-67
2023/04/19 06:25:13;;;;;;;9.23;7.10;;;8.70;99.90;;;;;;5085433;28;20196;-68
2023/04/19 06:27:40;;;;;;;10.05;7.60;;;8.70;99.90;;;;;;5087209;28;20595;-67
2023/04/19 06:30:08;;;;;;;9.40;6.90;;;8.80;99.90;;;;;;5091114;28;20294;-68
2023/04/19 06:32:36;;;;;;;12.88;8.90;;;8.80;99.90;;;;;;5083187;28;20227;-67
2023/04/19 06:35:03;;;;;;;10.98;7.40;;;8.90;99.90;;;;;;5087324;28;20200;-67
2023/04/19 06:37:30;;;;;;;11.75;8.02;;;9.00;99.90;;;;;;5088632;28;20216;-67
2023/04/19 06:39:56;;;;;;;13.00;7.55;;;9.00;99.90;;;;;;5090387;28;20208;-67
2023/04/19 06:42:24;;;;;;;14.73;8.68;;;9.00;99.90;;;;;;5085845;28;20227;-66
2023/04/19 06:44:51;;;;;;;13.60;8.48;;;9.10;99.90;;;;;;5085206;28;20206;-66
2023/04/19 06:47:18;;;;;;;9.85;7.60;;;9.10;99.90;;;;;;5084696;28;20242;-67
2023/04/19 06:49:46;;;;;;;10.98;8.35;;;9.10;99.90;;;;;;5093425;28;20203;-67
2023/04/19 06:52:13;;;;;;;11.63;7.78;;;9.20;99.90;;;;;;5084668;28;20265;-67
2023/04/19 06:54:39;;;;;;;10.45;7.78;;;9.30;99.90;;;;;;5085411;28;20520;-68
2023/04/19 06:57:06;;;;;;;9.55;7.47;;;9.40;99.90;;;;;;5084646;28;20589;-67
2023/04/19 06:59:34;;;;;;;12.60;8.32;;;9.40;99.90;;;;;;5089084;28;20207;-68
2023/04/19 07:02:00;;;;;;;10.80;6.82;;;9.50;99.90;;;;;;5091415;28;20224;-68
2023/04/19 07:04:27;;;;;;;9.57;6.85;;;9.50;99.90;;;;;;5086269;28;20203;-68
2023/04/19 07:06:55;;;;;;;10.68;7.38;;;9.50;99.90;;;;;;5085488;28;20211;-68
2023/04/19 07:09:22;;;;;;;9.90;7.97;;;9.50;99.90;;;;;;5085105;28;20199;-68
2023/04/19 07:11:50;;;;;;;9.82;6.90;;;9.50;99.90;;;;;;5085855;28;20220;-68
2023/04/19 07:14:18;;;;;;;10.20;7.30;;;9.60;99.90;;;;;;5081874;28;20200;-68
2023/04/19 07:16:45;;;;;;;8.32;6.53;;;9.60;99.90;;;;;;5089214;28;20633;-68
2023/04/19 07:19:11;;;;;;;13.10;7.90;;;9.60;99.90;;;;;;5082216;28;20202;-68
2023/04/19 07:21:38;;;;;;;8.57;6.68;;;9.60;99.90;;;;;;5081580;28;20223;-68
2023/04/19 07:24:07;;;;;;;8.65;7.50;;;9.50;99.90;;;;;;5090204;28;20207;-67
2023/04/19 07:26:34;;;;;;;15.32;8.52;;;9.50;99.90;;;;;;5087697;28;20215;-68
2023/04/19 07:29:01;;;;;;;12.95;9.45;;;9.60;99.90;;;;;;5085450;28;20215;-68
2023/04/19 07:31:28;;;;;;;10.68;7.65;;;9.60;99.90;;;;;;5085230;28;20228;-68
2023/04/19 07:33:55;;;;;;;11.85;7.72;;;9.70;99.90;;;;;;5084737;28;20201;-68
2023/04/19 07:36:22;;;;;;;11.27;7.85;;;9.70;99.90;;;;;;5089288;28;20201;-68
2023/04/19 07:38:48;;;;;;;8.35;6.38;;;9.80;99.90;;;;;;5081205;28;20200;-67
2023/04/19 07:41:16;;;;;;;12.63;8.20;;;10.10;99.90;;;;;;5075227;28;20216;-68
2023/04/19 07:43:43;;;;;;;10.07;7.25;;;10.30;99.90;;;;;;5093616;28;20203;-68
2023/04/19 07:46:10;;;;;;;9.35;7.57;;;10.40;99.90;;;;;;5092892;28;20227;-68
2023/04/19 07:48:38;;;;;;;9.15;6.32;;;10.50;99.90;;;;;;5094040;28;20199;-68
2023/04/19 07:51:09;;;;;;;8.02;6.53;;;10.50;99.90;;;;;;5092724;28;20571;-68
2023/04/19 07:53:36;;;;;;;10.43;7.32;;;10.60;99.90;;;;;;5084986;28;20211;-68
2023/04/19 07:56:03;;;;;;;8.88;6.88;;;10.70;99.90;;;;;;5092372;28;20548;-70
2023/04/19 07:58:31;;;;;;;9.82;7.32;;;10.80;99.90;;;;;;5084161;28;20226;-69
2023/04/19 08:00:58;;;;;;;10.00;7.20;;;10.80;99.90;;;;;;5083365;28;20242;-68
2023/04/19 08:03:25;;;;;;;10.90;7.05;;;10.80;99.90;;;;;;5084661;28;20208;-68
2023/04/19 08:05:51;;;;;;;8.20;7.00;;;11.00;99.90;;;;;;5084357;28;20295;-70
2023/04/19 08:08:18;;;;;;;9.13;7.03;;;11.30;99.90;;;;;;5091797;28;20205;-70
2023/04/19 08:10:45;;;;;;;8.25;6.78;;;11.60;99.90;;;;;;5091412;28;20670;-70
2023/04/19 08:13:11;;;;;;;9.48;7.00;;;12.00;99.90;;;;;;5088769;28;20659;-69
2023/04/19 08:15:40;;;;;;;8.55;6.22;;;12.20;99.90;;;;;;5085564;28;20204;-69
2023/04/19 08:18:06;;;;;;;11.43;7.20;;;12.50;99.90;;;;;;5082374;28;20210;-69
2023/04/19 08:20:33;;;;;;;8.43;6.95;;;12.90;99.90;;;;;;5082579;28;20294;-70
2023/04/19 08:23:00;;;;;;;8.75;5.93;;;13.30;99.90;;;;;;5091431;28;20204;-69
2023/04/19 08:25:27;;;;;;;8.50;6.03;;;13.80;99.90;;;;;;5082156;28;20666;-69
2023/04/19 08:27:56;;;;;;;7.03;5.63;;;14.40;99.90;;;;;;5083938;28;20477;-69
2023/04/19 08:30:23;;;;;;;6.87;6.07;;;15.00;99.90;;;;;;5087757;28;20466;-67
2023/04/19 08:32:51;;;;;;;6.97;5.83;;;14.80;99.90;;;;;;5079655;28;20474;-68
2023/04/19 08:35:18;;;;;;;8.40;5.83;;;14.30;99.90;;;;;;5087877;28;20512;-69
2023/04/19 08:37:44;;;;;;;8.47;6.83;;;13.90;99.90;;;;;;5086599;28;20461;-68
2023/04/19 08:40:11;;;;;;;7.20;5.47;;;13.70;99.90;;;;;;5082225;28;20461;-68
2023/04/19 08:45:07;;;;;;;7.40;6.23;;;13.50;99.90;;;;;;5050355;28;20478;-69
2023/04/19 08:47:35;;;;;;;8.33;6.20;;;13.30;99.90;;;;;;5052324;28;20479;-67
2023/04/19 08:50:05;;;;;;;8.57;6.67;;;13.30;99.90;;;;;;5051660;28;20497;-69
2023/04/19 08:52:34;;;;;;;7.32;5.53;;;13.40;99.90;;;;;;5051988;28;20485;-69
2023/04/19 08:55:03;;;;;;;7.77;5.23;;;13.10;99.90;;;;;;5050171;28;20312;-69
2023/04/19 08:57:31;;;;;;;6.37;5.17;;;13.20;99.90;;;;;;5050394;28;20459;-69
2023/04/19 08:59:58;;;;;;;5.83;5.23;;;13.40;99.90;;;;;;5050382;28;20460;-68
2023/04/19 09:02:25;;;;;;;5.93;5.20;;;13.40;99.90;;;;;;5049862;28;20490;-69
2023/04/19 09:04:52;;;;;;;7.60;5.50;;;13.50;99.90;;;;;;5050666;28;20463;-69
2023/04/19 09:07:27;;;;;;;5.93;4.47;;;13.80;99.90;;;;;;5049886;28;20606;-68
2023/04/19 09:10:06;;;;;;;5.23;4.57;;;14.00;99.90;;;;;;5050217;28;20458;-69
2023/04/19 09:12:33;;;;;;;7.57;5.33;;;13.80;99.90;;;;;;5043167;28;20578;-68
2023/04/19 09:15:01;;;;;;;6.43;5.10;;;13.60;99.90;;;;;;5050157;28;20529;-69
2023/04/19 09:17:28;;;;;;;5.83;5.10;;;13.60;99.90;;;;;;5050252;28;20458;-69
2023/04/19 09:19:55;;;;;;;7.83;4.87;;;13.50;99.90;;;;;;5050316;28;20951;-69
2023/04/19 09:22:21;;;;;;;6.30;5.33;;;13.50;99.90;;;;;;5049437;28;20486;-69
2023/04/19 09:24:50;;;;;;;5.53;4.87;;;13.30;99.90;;;;;;5050413;28;20459;-69
2023/04/19 09:27:26;;;;;;;7.78;5.20;;;13.20;99.90;;;;;;5052078;28;20479;-70
2023/04/19 09:29:55;;;;;;;6.00;4.83;;;13.30;99.90;;;;;;5054013;28;20522;-70
2023/04/19 09:32:22;;;;;;;5.37;4.67;;;13.30;99.90;;;;;;5051150;28;21048;-70
2023/04/19 09:34:53;;;;;;;8.57;5.40;;;13.40;99.90;;;;;;5052033;28;20554;-69
2023/04/19 09:37:20;;;;;;;7.70;6.10;;;13.60;99.90;;;;;;5053993;28;20460;-70
2023/04/19 09:39:46;;;;;;;7.37;5.03;;;13.80;99.90;;;;;;5056032;28;20487;-69
2023/04/19 09:42:16;;;;;;;6.87;5.77;;;14.40;99.90;;;;;;5055061;28;20829;-69
2023/04/19 09:44:55;;;;;;;6.70;4.33;;;14.70;99.90;;;;;;5058310;28;20563;-69
2023/04/19 09:47:23;;;;;;;6.20;5.23;;;15.30;99.90;;;;;;5056172;28;20504;-70
2023/04/19 09:50:07;;;;;;;7.90;5.00;;;16.60;99.90;;;;;;5055417;28;20883;-69
2023/04/19 09:52:34;;;;;;;5.70;4.70;;;17.40;99.90;;;;;;5054276;28;20475;-70
2023/04/19 09:55:03;;;;;;;12.20;6.07;;;17.50;99.90;;;;;;5055120;28;20455;-69
2023/04/19 09:57:31;;;;;;;6.17;5.27;;;17.20;99.90;;;;;;5054821;28;20557;-70
2023/04/19 09:59:59;;;;;;;6.13;5.23;;;17.10;99.90;;;;;;5055305;28;20459;-69
2023/04/19 10:02:30;;;;;;;7.63;5.97;;;16.90;99.90;;;;;;5053980;28;20486;-70
2023/04/19 10:04:58;;;;;;;6.37;5.20;;;17.00;99.90;;;;;;5054701;28;20489;-70
2023/04/19 10:07:25;;;;;;;6.60;5.40;;;17.40;99.90;;;;;;5054027;28;20478;-70
2023/04/19 10:09:55;;;;;;;6.00;5.40;;;17.60;99.90;;;;;;5054336;28;20455;-69
2023/04/19 10:12:26;;;;;;;7.30;5.70;;;17.70;99.90;;;;;;5053441;28;20487;-69
2023/04/19 10:14:56;;;;;;;6.63;5.70;;;17.40;99.90;;;;;;5053638;28;20562;-69
2023/04/19 10:17:24;;;;;;;7.37;6.10;;;17.40;99.90;;;;;;5053028;28;20521;-70
2023/04/19 10:19:57;;;;;;;7.43;5.37;;;17.40;99.90;;;;;;5053300;28;20847;-69
2023/04/19 10:22:25;;;;;;;7.33;5.53;;;17.50;99.90;;;;;;5052583;28;20484;-68
2023/04/19 10:25:11;;;;;;;5.50;4.87;;;17.20;99.90;;;;;;5053744;28;20463;-68
2023/04/19 10:27:38;;;;;;;7.10;5.27;;;17.30;99.90;;;;;;5053623;28;20503;-68
2023/04/19 10:30:16;;;;;;;6.10;4.80;;;17.40;99.90;;;;;;5052821;28;20467;-68
2023/04/19 10:32:45;;;;;;;6.33;5.67;;;18.10;99.90;;;;;;5053348;28;20856;-67
2023/04/19 10:35:19;;;;;;;7.80;6.10;;;18.60;99.90;;;;;;5053219;28;20459;-68
2023/04/19 10:38:04;;;;;;;7.00;5.60;;;18.40;99.90;;;;;;5053284;28;20460;-67
2023/04/19 10:40:59;;;;;;;7.00;5.63;;;18.00;99.90;;;;;;5053312;28;20949;-68
2023/04/19 10:43:27;;;;;;;6.00;4.90;;;17.90;99.90;;;;;;5018326;28;20478;-68
2023/04/19 10:45:59;;;;;;;5.90;5.00;;;17.70;99.90;;;;;;5053838;28;20456;-68
2023/04/19 10:48:37;;;;;;;5.20;4.70;;;17.40;99.90;;;;;;5052575;28;20503;-68
2023/04/19 10:51:11;;;;;;;5.23;4.53;;;17.20;99.90;;;;;;5052453;28;20905;-67
2023/04/19 10:53:45;;;;;;;6.80;4.97;;;16.90;99.90;;;;;;5053207;28;20466;-69
2023/04/19 10:56:13;;;;;;;7.30;6.03;;;16.80;99.90;;;;;;5053082;28;20462;-69
2023/04/19 10:59:21;;;;;;;7.67;5.73;;;17.00;99.90;;;;;;5053389;28;20456;-69
2023/04/19 11:01:52;;;;;;;6.20;5.60;;;17.00;99.90;;;;;;5052959;28;20897;-69
2023/04/19 11:04:19;;;;;;;5.97;5.13;;;16.70;99.90;;;;;;5053301;28;20705;-69
2023/04/19 11:07:13;;;;;;;5.97;4.60;;;16.30;99.90;;;;;;5056144;28;20527;-71
2023/04/19 11:09:45;;;;;;;6.43;5.80;;;15.90;99.90;;;;;;5019523;28;20460;-70
2023/04/19 11:12:13;;;;;;;6.57;5.33;;;15.40;99.90;;;;;;5053474;28;20497;-70
2023/04/19 11:14:42;;;;;;;5.17;4.67;;;15.00;99.90;;;;;;5053651;28;20534;-70
2023/04/19 11:17:17;;;;;;;5.90;5.30;;;14.70;99.90;;;;;;5053269;28;20455;-70
2023/04/19 11:19:45;;;;;;;5.40;4.90;;;14.40;99.90;;;;;;5053495;28;20545;-70
2023/04/19 11:22:11;;;;;;;5.57;4.93;;;14.10;99.90;;;;;;5053044;28;20904;-70
2023/04/19 11:24:38;;;;;;;6.23;5.60;;;13.90;99.90;;;;;;5053618;28;20467;-70
2023/04/19 11:27:08;;;;;;;6.20;5.17;;;13.70;99.90;;;;;;5053587;28;20460;-70
2023/04/19 11:29:35;;;;;;;5.60;4.77;;;13.70;99.90;;;;;;5052986;28;20495;-70
2023/04/19 11:32:01;;;;;;;7.60;6.00;;;13.70;99.90;;;;;;5052647;28;20490;-71
2023/04/19 11:34:30;;;;;;;11.97;6.33;;;13.80;99.90;;;;;;5052214;28;20467;-70
2023/04/19 11:36:56;;;;;;;8.57;6.30;;;13.90;99.90;;;;;;5053125;28;20563;-68
2023/04/19 11:39:23;;;;;;;7.77;5.20;;;13.90;99.90;;;;;;5052927;28;20459;-69
2023/04/19 11:41:50;;;;;;;7.20;5.70;;;13.80;99.90;;;;;;5053034;28;20480;-69
2023/04/19 11:44:19;;;;;;;6.73;5.10;;;13.70;99.90;;;;;;5052558;28;20474;-68
2023/04/19 11:47:02;;;;;;;6.13;5.20;;;13.60;99.90;;;;;;5052951;28;20510;-69
2023/04/19 11:49:32;;;;;;;8.53;5.33;;;13.50;99.90;;;;;;5052499;28;20459;-70
2023/04/19 11:52:00;;;;;;;8.07;5.93;;;13.20;99.90;;;;;;5051991;28;20479;-69
2023/04/19 11:54:28;;;;;;;7.50;6.37;;;13.00;99.90;;;;;;5101972;22;20481;-93
2023/04/19 11:57:03;;;;;;;6.03;4.70;;;12.80;99.90;;;;;;5085930;28;20435;-95
2023/04/19 11:59:32;;;;;;;5.90;5.30;;;12.60;99.90;;;;;;5085830;28;20510;-94
2023/04/19 12:02:07;;;;;;;8.87;6.13;;;12.40;99.90;;;;;;5093369;28;20443;-94
2023/04/19 12:04:35;;;;;;;6.68;5.90;;;12.20;99.90;;;;;;5081620;28;20461;-95
2023/04/19 12:07:05;;;;;;;6.72;5.40;;;12.00;99.90;;;;;;5090385;28;20212;-93
2023/04/19 12:09:34;;;;;;;7.82;6.03;;;11.90;99.90;;;;;;5093628;28;20188;-93
2023/04/19 12:12:01;;;;;;;9.35;6.50;;;11.80;99.90;;;;;;5085708;28;20186;-95
2023/04/19 12:14:30;;;;;;;7.25;5.30;;;11.60;99.90;;;;;;5085205;28;20212;-93
2023/04/19 12:17:08;;;;;;;7.10;5.60;;;11.50;99.90;;;;;;5090525;28;20259;-94
2023/04/19 12:19:37;;;;;;;7.43;5.88;;;11.40;99.90;;;;;;5078017;28;20199;-92
2023/04/19 12:22:12;;;;;;;10.07;7.63;;;11.20;99.90;;;;;;5085020;28;20180;-94
2023/04/19 12:24:39;;;;;;;9.13;6.93;;;11.10;99.90;;;;;;5087143;28;20231;-93
2023/04/19 12:27:07;;;;;;;7.63;6.25;;;11.10;99.90;;;;;;5088546;28;20256;-94
2023/04/19 12:29:34;;;;;;;9.07;8.00;;;11.10;99.90;;;;;;5081068;28;20304;-92
2023/04/19 12:32:01;;;;;;;9.45;6.60;;;11.10;99.90;;;;;;5082747;28;20219;-93
2023/04/19 12:34:28;;;;;;;9.75;7.20;;;11.00;99.90;;;;;;5083729;28;20235;-93
2023/04/19 12:36:57;;;;;;;9.45;7.20;;;10.90;99.90;;;;;;5081715;28;20215;-94
2023/04/19 12:39:27;;;;;;;10.30;7.38;;;10.80;99.90;;;;;;5081626;28;20229;-92
2023/04/19 12:41:54;;;;;;;10.55;7.15;;;10.70;99.90;;;;;;5078382;28;20231;-93
2023/04/19 12:44:21;;;;;;;16.80;8.18;;;10.70;99.90;;;;;;5074240;28;20239;-93
2023/04/19 12:46:48;;;;;;;9.48;7.18;;;10.70;99.90;;;;;;5071000;28;20197;-92
2023/04/19 12:49:17;;;;;;;9.25;6.85;;;10.60;99.90;;;;;;5076153;28;20216;-93
2023/04/19 12:51:46;;;;;;;12.57;8.07;;;10.50;99.90;;;;;;5072401;28;20579;-93
2023/04/19 12:54:15;;;;;;;11.57;8.15;;;10.40;99.90;;;;;;5081389;28;20235;-93
2023/04/19 12:56:41;;;;;;;10.52;7.20;;;10.40;99.90;;;;;;5073126;28;20261;-93
2023/04/19 12:59:08;;;;;;;12.63;8.40;;;10.20;99.90;;;;;;5072971;28;20670;-93